createdAt,value
2018-09-20T00:01:43.654Z,19.75
2018-09-20T00:04:12.495Z,19.76
2018-09-20T00:06:41.320Z,19.78
2018-09-20T00:09:10.159Z,20.08
2018-09-20T00:11:38.967Z,19.86
2018-09-20T00:14:07.815Z,19.77
2018-09-20T00:16:36.672Z,19.79
2018-09-20T00:19:05.513Z,19.73
2018-09-20T00:21:34.307Z,19.71
2018-09-20T00:24:03.209Z,19.71
2018-09-20T00:26:32.100Z,19.67
2018-09-20T00:29:00.993Z,19.63
2018-09-20T00:31:29.819Z,19.62
2018-09-20T00:33:59.525Z,19.64
2018-09-20T00:36:28.363Z,19.62
2018-09-20T00:38:57.200Z,19.54
2018-09-20T00:41:26.033Z,19.58
2018-09-20T00:43:54.891Z,19.58
2018-09-20T00:46:26.684Z,19.53
2018-09-20T00:48:56.386Z,19.56
2018-09-20T00:51:25.251Z,19.55
2018-09-20T00:53:54.109Z,19.51
2018-09-20T00:56:22.965Z,19.56
2018-09-20T00:58:51.802Z,19.86
2018-09-20T01:01:20.680Z,19.67
2018-09-20T01:03:49.528Z,19.55
2018-09-20T01:06:18.405Z,19.53
2018-09-20T01:08:47.239Z,19.46
2018-09-20T01:11:16.128Z,19.40
2018-09-20T01:13:44.956Z,19.42
2018-09-20T01:16:13.814Z,19.37
2018-09-20T01:18:42.656Z,19.43
2018-09-20T01:21:11.480Z,19.43
2018-09-20T01:23:40.313Z,19.43
2018-09-20T01:26:09.155Z,19.37
2018-09-20T01:28:37.994Z,19.33
2018-09-20T01:31:06.836Z,19.25
2018-09-20T01:33:35.667Z,19.29
2018-09-20T01:36:04.491Z,19.31
2018-09-20T01:38:33.335Z,19.27
2018-09-20T01:41:02.195Z,19.20
2018-09-20T01:43:31.393Z,19.55
2018-09-20T01:46:00.224Z,19.36
2018-09-20T01:48:29.097Z,19.16
2018-09-20T01:50:57.914Z,19.20
2018-09-20T01:53:26.723Z,19.19
2018-09-20T01:55:55.573Z,19.12
2018-09-20T01:58:24.405Z,19.10
2018-09-20T02:00:53.252Z,19.39
2018-09-20T02:03:22.105Z,19.10
2018-09-20T02:05:50.982Z,19.10
2018-09-20T02:08:19.824Z,19.11
2018-09-20T02:10:48.655Z,19.01
2018-09-20T02:13:17.515Z,18.95
2018-09-20T02:15:46.344Z,18.91
2018-09-20T02:18:15.188Z,18.94
2018-09-20T02:20:44.018Z,18.87
2018-09-20T02:23:12.844Z,19.18
2018-09-20T02:25:41.749Z,18.88
2018-09-20T02:28:10.580Z,19.30
2018-09-20T02:30:39.418Z,19.11
2018-09-20T02:33:08.225Z,19.01
2018-09-20T02:35:37.123Z,18.84
2018-09-20T02:38:05.897Z,18.86
2018-09-20T02:40:34.770Z,18.84
2018-09-20T02:43:03.597Z,18.80
2018-09-20T02:45:32.405Z,18.73
2018-09-20T02:48:01.286Z,18.77
2018-09-20T02:50:30.152Z,18.62
2018-09-20T02:52:58.964Z,18.63
2018-09-20T02:55:27.847Z,18.63
2018-09-20T02:57:56.688Z,18.52
2018-09-20T03:00:25.513Z,18.62
2018-09-20T03:02:54.325Z,18.52
2018-09-20T03:05:23.133Z,18.53
2018-09-20T03:07:51.978Z,18.56
2018-09-20T03:10:20.823Z,18.58
2018-09-20T03:12:49.750Z,18.56
2018-09-20T03:15:18.570Z,18.47
2018-09-20T03:17:47.437Z,18.56
2018-09-20T03:20:16.260Z,18.56
2018-09-20T03:22:45.114Z,18.88
2018-09-20T03:25:13.952Z,18.67
2018-09-20T03:27:42.798Z,18.69
2018-09-20T03:30:11.692Z,18.66
2018-09-20T03:32:40.480Z,18.58
2018-09-20T03:35:09.330Z,18.54
2018-09-20T03:37:38.170Z,18.44
2018-09-20T03:40:07.048Z,18.58
2018-09-20T03:42:35.877Z,18.63
2018-09-20T03:45:04.725Z,18.60
2018-09-20T03:47:33.575Z,18.53
2018-09-20T03:50:02.447Z,18.86
2018-09-20T03:52:31.257Z,18.96
2018-09-20T03:55:00.078Z,18.73
2018-09-20T03:57:28.933Z,18.66
2018-09-20T03:59:57.759Z,18.63
2018-09-20T04:02:26.619Z,18.59
2018-09-20T04:04:55.463Z,18.54
2018-09-20T04:07:24.313Z,18.50
2018-09-20T04:09:53.171Z,18.47
2018-09-20T04:12:22.001Z,18.47
2018-09-20T04:14:50.832Z,18.41
2018-09-20T04:17:19.696Z,18.67
2018-09-20T04:19:48.524Z,18.42
2018-09-20T04:22:17.386Z,18.32
2018-09-20T04:24:46.223Z,18.31
2018-09-20T04:27:15.083Z,18.22
2018-09-20T04:29:43.935Z,18.17
2018-09-20T04:32:12.746Z,18.17
2018-09-20T04:34:41.582Z,18.17
2018-09-20T04:37:10.408Z,18.16
2018-09-20T04:39:39.266Z,18.18
2018-09-20T04:42:08.079Z,18.10
2018-09-20T04:44:36.947Z,18.12
2018-09-20T04:47:06.032Z,18.02
2018-09-20T04:49:34.893Z,18.08
2018-09-20T04:52:03.726Z,18.08
2018-09-20T04:54:32.569Z,18.12
2018-09-20T04:57:01.422Z,18.13
2018-09-20T04:59:30.265Z,18.15
2018-09-20T05:01:59.118Z,18.14
2018-09-20T05:04:27.965Z,18.19
2018-09-20T05:06:56.800Z,18.27
2018-09-20T05:09:25.726Z,18.24
2018-09-20T05:11:54.487Z,18.23
2018-09-20T05:14:23.341Z,18.27
2018-09-20T05:16:52.260Z,18.31
2018-09-20T05:19:21.168Z,18.35
2018-09-20T05:21:49.976Z,18.35
2018-09-20T05:24:18.825Z,18.33
2018-09-20T05:26:47.690Z,18.26
2018-09-20T05:29:16.581Z,18.56
2018-09-20T05:31:45.428Z,18.35
2018-09-20T05:34:14.271Z,18.29
2018-09-20T05:36:43.165Z,18.36
2018-09-20T05:39:12.410Z,18.66
2018-09-20T05:41:41.289Z,18.38
2018-09-20T05:44:10.700Z,18.37
2018-09-20T05:46:40.326Z,18.39
2018-09-20T05:49:09.167Z,18.36
2018-09-20T05:51:38.165Z,18.35
2018-09-20T05:54:07.315Z,18.36
2018-09-20T05:56:36.167Z,18.27
2018-09-20T05:59:05.301Z,18.31
2018-09-20T06:01:34.184Z,18.41
2018-09-20T06:04:03.056Z,18.40
2018-09-20T06:06:31.883Z,18.43
2018-09-20T06:09:00.738Z,18.37
2018-09-20T06:11:29.570Z,18.41
2018-09-20T06:13:58.404Z,18.46
2018-09-20T06:16:27.254Z,18.51
2018-09-20T06:18:56.083Z,18.57
2018-09-20T06:21:24.948Z,18.51
2018-09-20T06:23:53.790Z,18.46
2018-09-20T06:26:22.656Z,18.57
2018-09-20T06:28:51.530Z,18.59
2018-09-20T06:31:20.497Z,18.74
2018-09-20T06:33:49.296Z,19.08
2018-09-20T06:36:18.135Z,18.86
2018-09-20T06:38:46.976Z,19.27
2018-09-20T06:41:15.797Z,19.05
2018-09-20T06:43:44.662Z,18.97
2018-09-20T06:46:13.540Z,19.12
2018-09-20T06:48:42.440Z,19.13
2018-09-20T06:51:11.261Z,19.04
2018-09-20T06:53:40.509Z,19.02
2018-09-20T06:56:09.328Z,19.00
2018-09-20T06:58:38.208Z,18.99
2018-09-20T07:01:07.049Z,19.05
2018-09-20T07:03:35.872Z,19.15
2018-09-20T07:06:04.720Z,19.13
2018-09-20T07:08:33.711Z,19.16
2018-09-20T07:11:02.547Z,19.15
2018-09-20T07:13:31.750Z,19.29
2018-09-20T07:16:00.493Z,19.27
2018-09-20T07:18:29.343Z,19.60
2018-09-20T07:20:58.212Z,19.28
2018-09-20T07:23:27.069Z,19.28
2018-09-20T07:25:55.937Z,19.45
2018-09-20T07:28:24.812Z,19.45
2018-09-20T07:30:53.680Z,19.60
2018-09-20T07:33:22.522Z,19.74
2018-09-20T07:35:51.346Z,20.09
2018-09-20T07:38:20.184Z,19.78
2018-09-20T07:40:49.006Z,19.84
2018-09-20T07:43:17.844Z,20.00
2018-09-20T07:45:46.733Z,20.00
2018-09-20T07:48:15.553Z,20.26
2018-09-20T07:50:44.377Z,20.44
2018-09-20T07:53:13.213Z,20.58
2018-09-20T07:55:42.087Z,20.65
2018-09-20T07:58:10.912Z,20.93
2018-09-20T08:00:39.766Z,21.00
2018-09-20T08:03:08.600Z,21.64
2018-09-20T08:05:37.463Z,22.13
2018-09-20T08:08:06.334Z,22.12
2018-09-20T08:10:35.176Z,21.91
2018-09-20T08:13:04.126Z,21.85
2018-09-20T08:15:32.945Z,21.71
2018-09-20T08:18:01.804Z,21.72
2018-09-20T08:20:30.671Z,21.64
2018-09-20T08:22:59.518Z,21.97
2018-09-20T08:25:28.370Z,21.59
2018-09-20T08:27:57.207Z,21.52
2018-09-20T08:30:26.025Z,21.95
2018-09-20T08:32:54.931Z,21.74
2018-09-20T08:35:23.794Z,21.48
2018-09-20T08:37:52.724Z,21.55
2018-09-20T08:40:21.495Z,21.86
2018-09-20T08:42:50.381Z,21.77
2018-09-20T08:45:19.206Z,21.75
2018-09-20T08:47:48.020Z,21.80
2018-09-20T08:50:17.401Z,21.93
2018-09-20T08:52:46.308Z,21.92
2018-09-20T08:55:15.246Z,21.97
2018-09-20T08:57:56.073Z,21.80
2018-09-20T09:00:26.432Z,21.95
2018-09-20T09:02:55.252Z,22.17
2018-09-20T09:05:24.067Z,22.42
2018-09-20T09:07:52.948Z,22.54
2018-09-20T09:10:21.872Z,22.77
2018-09-20T09:12:50.713Z,23.59
2018-09-20T09:15:19.552Z,23.55
2018-09-20T09:17:48.388Z,23.36
2018-09-20T09:22:55.110Z,23.72
2018-09-20T09:25:23.998Z,23.45
2018-09-20T09:27:52.829Z,24.08
2018-09-20T09:30:21.660Z,23.92
2018-09-20T09:32:50.494Z,23.35
2018-09-20T09:35:19.354Z,23.62
2018-09-20T09:37:48.204Z,23.08
2018-09-20T09:40:17.413Z,22.55
2018-09-20T09:42:46.242Z,22.29
2018-09-20T09:45:15.088Z,22.26
2018-09-20T09:47:43.919Z,22.25
2018-09-20T09:50:12.790Z,22.86
2018-09-20T09:52:41.814Z,22.46
2018-09-20T09:55:10.671Z,22.32
2018-09-20T09:57:39.468Z,22.49
2018-09-20T10:00:08.286Z,23.41
2018-09-20T10:02:37.244Z,23.22
2018-09-20T10:05:05.996Z,23.34
2018-09-20T10:07:34.819Z,23.15
2018-09-20T10:10:03.693Z,23.13
2018-09-20T10:12:32.499Z,24.25
2018-09-20T10:15:01.363Z,25.66
2018-09-20T10:17:30.181Z,26.00
2018-09-20T10:19:59.106Z,26.16
2018-09-20T10:22:27.861Z,26.66
2018-09-20T10:24:56.701Z,26.93
2018-09-20T10:27:25.542Z,26.75
2018-09-20T10:29:54.367Z,26.04
2018-09-20T10:32:23.208Z,26.74
2018-09-20T10:34:52.047Z,27.85
2018-09-20T10:37:21.243Z,27.96
2018-09-20T10:39:57.371Z,29.16
2018-09-20T10:42:25.111Z,28.53
2018-09-20T10:44:58.300Z,28.19
2018-09-20T10:47:26.208Z,29.33
2018-09-20T10:49:55.551Z,28.62
2018-09-20T10:52:24.744Z,27.18
2018-09-20T10:54:57.001Z,26.75
2018-09-20T10:57:26.232Z,27.59
2018-09-20T10:59:55.512Z,28.01
2018-09-20T11:02:27.429Z,28.44
2018-09-20T11:04:56.584Z,28.17
2018-09-20T11:07:28.691Z,28.73
2018-09-20T11:09:57.853Z,28.44
2018-09-20T11:12:27.228Z,27.98
2018-09-20T11:14:56.251Z,28.21
2018-09-20T11:17:25.498Z,27.46
2018-09-20T11:19:54.723Z,27.35
2018-09-20T11:25:00.720Z,27.00
2018-09-20T11:27:32.222Z,26.63
2018-09-20T11:29:59.314Z,26.46
2018-09-20T11:32:30.864Z,26.88
2018-09-20T11:35:00.085Z,27.42
2018-09-20T11:37:29.422Z,27.42
2018-09-20T11:39:58.283Z,27.21
2018-09-20T11:42:28.197Z,27.06
2018-09-20T11:44:57.736Z,26.83
2018-09-20T11:47:26.868Z,26.61
2018-09-20T11:49:55.794Z,26.60
2018-09-20T11:52:27.828Z,26.68
2018-09-20T11:54:56.864Z,27.05
2018-09-20T11:57:25.976Z,26.54
2018-09-20T11:59:57.744Z,26.62
2018-09-20T12:02:26.781Z,26.77
2018-09-20T12:04:55.971Z,26.65
2018-09-20T12:07:24.913Z,26.71
2018-09-20T12:09:54.242Z,26.93
2018-09-20T12:12:23.382Z,27.15
2018-09-20T12:14:52.495Z,26.63
2018-09-20T12:17:24.519Z,26.32
2018-09-20T12:19:59.753Z,26.00
2018-09-20T12:22:25.933Z,25.77
2018-09-20T12:24:57.420Z,25.96
2018-09-20T12:27:30.894Z,26.12
2018-09-20T12:30:01.112Z,26.09
2018-09-20T12:32:30.291Z,25.87
2018-09-20T12:34:59.567Z,26.01
2018-09-20T12:37:38.894Z,25.89
2018-09-20T12:40:09.104Z,25.75
2018-09-20T12:42:40.664Z,25.09
2018-09-20T12:45:10.446Z,25.54
2018-09-20T12:47:39.641Z,25.70
2018-09-20T12:50:08.741Z,25.61
2018-09-20T12:52:39.681Z,25.96
2018-09-20T12:55:11.367Z,26.05
2018-09-20T12:57:43.268Z,26.06
2018-09-20T13:00:18.263Z,25.83
2018-09-20T13:02:49.979Z,26.31
2018-09-20T13:05:19.070Z,26.38
2018-09-20T13:07:48.341Z,26.41
2018-09-20T13:10:19.454Z,26.29
2018-09-20T13:12:48.623Z,26.37
2018-09-20T13:15:17.688Z,26.35
2018-09-20T13:17:46.789Z,26.39
2018-09-20T13:20:16.020Z,26.66
2018-09-20T13:22:45.173Z,26.46
2018-09-20T13:25:16.301Z,26.17
2018-09-20T13:27:45.728Z,26.37
2018-09-20T13:30:14.729Z,26.38
2018-09-20T13:32:46.401Z,26.39
2018-09-20T13:35:20.669Z,26.05
2018-09-20T13:37:50.016Z,26.29
2018-09-20T13:40:26.389Z,26.44
2018-09-20T13:42:55.967Z,26.18
2018-09-20T13:45:25.141Z,26.44
2018-09-20T13:47:57.209Z,26.40
2018-09-20T13:50:26.282Z,26.29
2018-09-20T13:52:57.870Z,26.26
2018-09-20T13:55:27.105Z,26.23
2018-09-20T13:57:56.838Z,26.28
2018-09-20T14:00:27.766Z,26.35
2018-09-20T14:02:57.437Z,26.22
2018-09-20T14:05:26.948Z,26.20
2018-09-20T14:07:56.616Z,26.03
2018-09-20T14:10:29.022Z,25.93
2018-09-20T14:12:59.925Z,26.35
2018-09-20T14:15:28.833Z,26.48
2018-09-20T14:17:57.950Z,26.59
2018-09-20T14:20:27.052Z,26.39
2018-09-20T14:22:56.063Z,26.08
2018-09-20T14:25:27.248Z,26.37
2018-09-20T14:27:56.382Z,26.06
2018-09-20T14:30:25.429Z,26.12
2018-09-20T14:32:56.713Z,25.86
2018-09-20T14:35:26.108Z,25.83
2018-09-20T14:37:55.226Z,25.82
2018-09-20T14:40:24.295Z,25.96
2018-09-20T14:42:53.418Z,26.10
2018-09-20T14:45:22.449Z,25.94
2018-09-20T14:47:51.496Z,25.57
2018-09-20T14:50:20.676Z,25.80
2018-09-20T14:52:50.143Z,26.14
2018-09-20T14:55:19.188Z,25.85
2018-09-20T14:57:48.406Z,25.86
2018-09-20T15:00:17.481Z,26.07
2018-09-20T15:02:46.638Z,26.18
2018-09-20T15:05:15.820Z,25.72
2018-09-20T15:07:45.061Z,25.72
2018-09-20T15:10:14.173Z,25.55
2018-09-20T15:12:43.580Z,25.68
2018-09-20T15:15:15.620Z,25.85
2018-09-20T15:17:44.617Z,26.13
2018-09-20T15:20:14.020Z,25.72
2018-09-20T15:22:45.980Z,25.61
2018-09-20T15:25:15.003Z,25.65
2018-09-20T15:27:46.442Z,25.70
2018-09-20T15:30:15.860Z,25.64
2018-09-20T15:32:44.851Z,25.51
2018-09-20T15:35:14.264Z,25.54
2018-09-20T15:37:43.475Z,25.44
2018-09-20T15:40:12.489Z,25.41
2018-09-20T15:42:41.620Z,25.51
2018-09-20T15:45:10.690Z,25.28
2018-09-20T15:47:39.748Z,25.54
2018-09-20T15:50:08.853Z,25.21
2018-09-20T15:52:38.008Z,25.17
2018-09-20T15:55:07.135Z,25.12
2018-09-20T15:57:36.583Z,25.09
2018-09-20T16:00:06.436Z,25.05
2018-09-20T16:02:35.521Z,25.03
2018-09-20T16:05:07.342Z,24.94
2018-09-20T16:07:36.369Z,24.92
2018-09-20T16:10:05.458Z,24.83
2018-09-20T16:12:37.874Z,24.97
2018-09-20T16:15:09.336Z,24.97
2018-09-20T16:17:38.179Z,25.00
2018-09-20T16:20:07.750Z,24.99
2018-09-20T16:22:36.592Z,24.98
2018-09-20T16:25:06.069Z,24.97
2018-09-20T16:27:34.975Z,24.85
2018-09-20T16:30:46.725Z,24.78
2018-09-20T16:33:53.576Z,24.75
2018-09-20T16:36:40.513Z,24.59
2018-09-20T16:39:16.552Z,24.54
2018-09-20T16:41:46.775Z,24.56
2018-09-20T16:44:15.651Z,24.44
2018-09-20T16:46:44.462Z,24.37
2018-09-20T16:49:13.330Z,24.34
2018-09-20T16:51:42.204Z,24.30
2018-09-20T16:54:11.031Z,24.12
2018-09-20T16:56:39.902Z,24.15
2018-09-20T16:59:08.804Z,24.12
2018-09-20T17:01:37.654Z,24.42
2018-09-20T17:04:06.491Z,24.21
2018-09-20T17:06:35.337Z,24.18
2018-09-20T17:09:06.198Z,24.08
2018-09-20T17:11:35.033Z,24.08
2018-09-20T17:14:03.879Z,24.02
2018-09-20T17:16:32.822Z,23.85
2018-09-20T17:19:01.633Z,23.89
2018-09-20T17:21:30.450Z,24.12
2018-09-20T17:23:59.293Z,23.83
2018-09-20T17:26:28.144Z,23.77
2018-09-20T17:28:56.992Z,23.66
2018-09-20T17:31:25.816Z,23.63
2018-09-20T17:33:54.632Z,23.54
2018-09-20T17:36:23.703Z,23.45
2018-09-20T17:38:53.181Z,23.38
2018-09-20T17:41:24.933Z,23.27
2018-09-20T17:43:55.646Z,23.30
2018-09-20T17:46:24.455Z,23.25
2018-09-20T17:48:53.292Z,23.21
2018-09-20T17:51:22.272Z,23.12
2018-09-20T17:53:51.411Z,23.09
2018-09-20T17:56:20.527Z,23.05
2018-09-20T17:58:49.587Z,23.00
2018-09-20T18:01:18.445Z,22.93
2018-09-20T18:03:47.251Z,22.89
2018-09-20T18:06:16.073Z,22.83
2018-09-20T18:08:44.912Z,22.79
2018-09-20T18:11:13.716Z,22.75
2018-09-20T18:13:42.574Z,22.73
2018-09-20T18:16:11.388Z,22.96
2018-09-20T18:18:40.196Z,22.72
2018-09-20T18:21:09.027Z,22.89
2018-09-20T18:23:37.852Z,22.61
2018-09-20T18:26:06.702Z,22.59
2018-09-20T18:28:35.636Z,22.84
2018-09-20T18:31:04.487Z,22.53
2018-09-20T18:33:33.316Z,22.49
2018-09-20T18:36:02.153Z,22.47
2018-09-20T18:38:31.006Z,22.75
2018-09-20T18:40:59.856Z,22.50
2018-09-20T18:43:28.673Z,22.46
2018-09-20T18:45:57.496Z,22.41
2018-09-20T18:48:26.427Z,22.38
2018-09-20T18:50:55.180Z,22.35
2018-09-20T18:53:24.017Z,22.59
2018-09-20T18:55:52.958Z,22.33
2018-09-20T18:58:21.817Z,22.25
2018-09-20T19:00:52.395Z,22.25
2018-09-20T19:03:21.762Z,22.23
2018-09-20T19:05:50.581Z,22.17
2018-09-20T19:08:19.666Z,22.19
2018-09-20T19:10:48.501Z,22.11
2018-09-20T19:13:17.321Z,22.12
2018-09-20T19:15:46.180Z,21.94
2018-09-20T19:18:14.997Z,21.99
2018-09-20T19:20:43.843Z,22.06
2018-09-20T19:23:12.684Z,22.05
2018-09-20T19:25:41.519Z,22.03
2018-09-20T19:28:10.382Z,22.04
2018-09-20T19:30:39.280Z,21.99
2018-09-20T19:33:08.122Z,22.02
2018-09-20T19:35:36.938Z,21.97
2018-09-20T19:38:05.794Z,21.93
2018-09-20T19:40:34.643Z,21.98
2018-09-20T19:43:03.457Z,21.94
2018-09-20T19:45:32.275Z,21.97
2018-09-20T19:48:01.130Z,21.88
2018-09-20T19:50:29.957Z,21.89
2018-09-20T19:52:58.795Z,21.93
2018-09-20T19:55:27.622Z,22.00
2018-09-20T19:57:56.464Z,22.00
2018-09-20T20:00:25.353Z,22.01
2018-09-20T20:02:54.127Z,22.02
2018-09-20T20:05:22.975Z,22.05
2018-09-20T20:07:51.795Z,22.06
2018-09-20T20:10:20.612Z,22.09
2018-09-20T20:12:49.435Z,22.12
2018-09-20T20:15:18.297Z,22.12
2018-09-20T20:17:47.284Z,22.16
2018-09-20T20:20:16.124Z,22.15
2018-09-20T20:22:44.943Z,22.15
2018-09-20T20:25:13.776Z,22.17
2018-09-20T20:27:42.643Z,22.22
2018-09-20T20:30:11.497Z,22.19
2018-09-20T20:32:40.447Z,22.22
2018-09-20T20:35:09.152Z,22.21
2018-09-20T20:37:37.982Z,22.18
2018-09-20T20:40:06.982Z,22.20
2018-09-20T20:42:35.819Z,22.18
2018-09-20T20:45:04.821Z,22.18
2018-09-20T20:47:33.562Z,22.08
2018-09-20T20:50:02.577Z,22.38
2018-09-20T20:52:31.429Z,22.25
2018-09-20T20:55:00.289Z,22.23
2018-09-20T20:57:29.153Z,22.17
2018-09-20T20:59:58.077Z,22.13
2018-09-20T21:02:27.136Z,22.13
2018-09-20T21:04:55.987Z,22.10
2018-09-20T21:07:24.833Z,22.10
2018-09-20T21:09:53.680Z,22.08
2018-09-20T21:12:22.515Z,22.07
2018-09-20T21:14:51.378Z,22.02
2018-09-20T21:17:20.260Z,22.02
2018-09-20T21:19:49.033Z,21.96
2018-09-20T21:22:17.886Z,21.95
2018-09-20T21:24:46.703Z,21.94
2018-09-20T21:27:15.555Z,21.96
2018-09-20T21:29:44.388Z,22.17
2018-09-20T21:32:13.259Z,21.96
2018-09-20T21:34:42.095Z,21.93
2018-09-20T21:37:10.928Z,21.81
2018-09-20T21:39:39.761Z,21.88
2018-09-20T21:42:08.608Z,21.83
2018-09-20T21:44:37.440Z,21.76
2018-09-20T21:47:06.332Z,21.77
2018-09-20T21:49:35.172Z,21.67
2018-09-20T21:52:04.028Z,21.73
2018-09-20T21:54:32.867Z,21.63
2018-09-20T21:57:01.694Z,21.68
2018-09-20T21:59:30.566Z,21.68
2018-09-20T22:02:03.174Z,21.62
2018-09-20T22:04:32.880Z,21.67
2018-09-20T22:07:01.735Z,21.69
2018-09-20T22:09:31.173Z,21.60
2018-09-20T22:12:00.054Z,21.71
2018-09-20T22:14:28.871Z,21.67
2018-09-20T22:16:57.693Z,21.63
2018-09-20T22:19:26.552Z,21.65
2018-09-20T22:21:55.402Z,21.67
2018-09-20T22:24:24.215Z,21.63
2018-09-20T22:26:53.048Z,21.60
2018-09-20T22:29:21.901Z,21.56
2018-09-20T22:31:50.733Z,21.47
2018-09-20T22:34:19.557Z,21.52
2018-09-20T22:36:48.462Z,21.56
2018-09-20T22:39:17.290Z,21.60
2018-09-20T22:41:46.113Z,21.53
2018-09-20T22:44:14.933Z,21.55
2018-09-20T22:46:43.773Z,21.61
2018-09-20T22:49:12.623Z,21.63
2018-09-20T22:51:41.473Z,21.55
2018-09-20T22:54:10.349Z,21.51
2018-09-20T22:56:39.193Z,21.46
2018-09-20T22:59:08.047Z,21.57
2018-09-20T23:01:36.873Z,21.55
2018-09-20T23:04:05.695Z,21.54
2018-09-20T23:06:34.536Z,21.56
2018-09-20T23:09:03.376Z,21.53
2018-09-20T23:11:32.187Z,21.52
2018-09-20T23:14:01.002Z,21.54
2018-09-20T23:16:29.855Z,21.62
2018-09-20T23:18:58.686Z,21.50
2018-09-20T23:21:27.676Z,21.80
2018-09-20T23:23:56.509Z,21.61
2018-09-20T23:26:25.330Z,21.64
2018-09-20T23:28:54.147Z,21.62
2018-09-20T23:31:22.983Z,21.60
2018-09-20T23:33:51.817Z,21.55
2018-09-20T23:36:20.663Z,21.60
2018-09-20T23:38:49.467Z,21.46
2018-09-20T23:41:18.283Z,21.50
2018-09-20T23:43:47.114Z,21.80
2018-09-20T23:46:15.941Z,21.60
2018-09-20T23:48:44.809Z,21.48
2018-09-20T23:51:13.636Z,21.40
2018-09-20T23:53:42.504Z,21.81
2018-09-20T23:56:11.374Z,21.63
2018-09-20T23:58:40.206Z,21.49
